Aviation Digital Data Service (ADDS)

Output produced by METARs form (0008 UTC 24 May 2022)
found at http://www.aviationweather.gov/metar/data/
 
UBBB 240000Z 33016KT 9999 FEW060CB 16/12 Q1001 NOSIG
TAF UBBB 232318Z 2400/2424 33018G28KT 9999 FEW050CB SCT100 TX19/2410Z TN14/2402Z

     TEMPO 2400/2408 34024G34KT -SHRA FEW010 SCT040CB BKN080 
     BECMG 2411/2413 35014KT 
     TEMPO 2417/2424 32010KT 6000 -SHRA SCT010 SCT033CB BKN070
       
UBBG 240000Z 27014KT 9999 BKN100 13/09 Q1004 NOSIG
TAF UBBG 231700Z 2318/2418 31014KT 9999 FEW030CB BKN060 TX21/2411Z TN13/2403Z 
     TEMPO 2318/2324 -TSRA SCT030CB OVC030 
     BECMG 2400/2402 26010KT SCT040 BKN080